Time;durP1;ratioP1;P1;durP2;ratioP2;P2;SDS_P1;SDS_P2;PMS_P1;PMS_P2;Temp;Humidity;BMP_temperature;BMP_pressure;BME280_temperature;BME280_humidity;BME280_pressure;Samples;Min_cycle;Max_cycle;Signal;HPM_P1;HPM_P2
2022/11/16 00:01:07;;;;;;;9.93;8.97;;;;;;;;;;5069578;28;20568;-77
2022/11/16 00:03:35;;;;;;;10.33;9.43;;;;;;;;;;5072540;28;20461;-76
2022/11/16 00:06:04;;;;;;;10.03;9.23;;;;;;;;;;5073156;28;20788;-77
2022/11/16 00:08:32;;;;;;;10.80;9.73;;;;;;;;;;5072901;28;20455;-77
2022/11/16 00:11:04;;;;;;;10.67;9.70;;;;;;;;;;5073480;28;20444;-77
2022/11/16 00:13:33;;;;;;;11.47;9.33;;;;;;;;;;5072940;28;20464;-77
2022/11/16 00:16:00;;;;;;;8.37;7.60;;;;;;;;;;5073173;28;20437;-76
2022/11/16 00:18:28;;;;;;;8.30;7.60;;;;;;;;;;5073230;28;20460;-76
2022/11/16 00:20:55;;;;;;;8.10;7.40;;;;;;;;;;5073872;28;20484;-77
2022/11/16 00:23:22;;;;;;;6.97;6.27;;;;;;;;;;5072783;28;20472;-76
2022/11/16 00:25:50;;;;;;;6.47;5.97;;;;;;;;;;5072908;28;21007;-76
2022/11/16 00:28:17;;;;;;;5.67;5.20;;;;;;;;;;5073227;28;20444;-77
2022/11/16 00:30:46;;;;;;;5.70;5.20;;;;;;;;;;5073022;28;20441;-76
2022/11/16 00:33:14;;;;;;;6.20;5.60;;;;;;;;;;5072219;28;20469;-76
2022/11/16 00:35:41;;;;;;;8.83;6.47;;;;;;;;;;5072942;28;20530;-76
2022/11/16 00:38:08;;;;;;;5.20;4.80;;;;;;;;;;5071188;28;20441;-75
2022/11/16 00:40:38;;;;;;;6.43;5.73;;;;;;;;;;5053011;28;20478;-77
2022/11/16 00:43:05;;;;;;;5.90;5.40;;;;;;;;;;5052723;28;20461;-76
2022/11/16 00:45:32;;;;;;;6.30;5.80;;;;;;;;;;5052956;28;20517;-76
2022/11/16 00:48:01;;;;;;;5.97;5.13;;;;;;;;;;5052937;28;20449;-77
2022/11/16 00:50:28;;;;;;;5.90;5.40;;;;;;;;;;5052757;28;20448;-76
2022/11/16 00:52:55;;;;;;;6.03;5.63;;;;;;;;;;5052255;28;20461;-77
2022/11/16 00:55:22;;;;;;;7.20;6.60;;;;;;;;;;5052052;28;20453;-76
2022/11/16 00:57:49;;;;;;;7.20;6.60;;;;;;;;;;5052880;28;20452;-77
2022/11/16 01:00:17;;;;;;;7.23;6.53;;;;;;;;;;5052416;28;20945;-76
2022/11/16 01:02:44;;;;;;;6.97;6.30;;;;;;;;;;5066852;28;20462;-76
2022/11/16 01:05:13;;;;;;;6.50;6.00;;;;;;;;;;5072613;28;20947;-77
2022/11/16 01:07:40;;;;;;;6.33;5.83;;;;;;;;;;5053812;28;20820;-77
2022/11/16 01:10:09;;;;;;;7.53;6.57;;;;;;;;;;5070743;28;20445;-78
2022/11/16 01:12:35;;;;;;;7.60;7.00;;;;;;;;;;5071701;28;20964;-76
2022/11/16 01:15:02;;;;;;;7.83;7.10;;;;;;;;;;5072545;28;20478;-76
2022/11/16 01:17:29;;;;;;;9.00;8.30;;;;;;;;;;5072092;28;20441;-76
2022/11/16 01:19:56;;;;;;;10.37;9.23;;;;;;;;;;5072253;28;20443;-76
2022/11/16 01:22:24;;;;;;;10.53;9.53;;;;;;;;;;5072557;28;20519;-77
2022/11/16 01:24:51;;;;;;;10.33;9.30;;;;;;;;;;5071866;28;20503;-76
2022/11/16 01:27:18;;;;;;;10.00;9.00;;;;;;;;;;5071871;28;20476;-77
2022/11/16 01:29:46;;;;;;;10.43;9.43;;;;;;;;;;5071644;28;20449;-77
2022/11/16 01:32:13;;;;;;;9.57;8.77;;;;;;;;;;5071371;28;20432;-77
2022/11/16 01:34:40;;;;;;;10.03;9.23;;;;;;;;;;5071247;28;20461;-76
2022/11/16 01:37:07;;;;;;;10.47;9.50;;;;;;;;;;5071558;28;20448;-77
2022/11/16 01:39:35;;;;;;;10.03;9.13;;;;;;;;;;5071565;28;20456;-76
2022/11/16 01:42:02;;;;;;;9.80;8.87;;;;;;;;;;5071288;28;20484;-77
2022/11/16 01:44:48;;;;;;;10.00;9.00;;;;;;;;;;5070569;28;20796;-77
2022/11/16 01:47:16;;;;;;;10.13;9.23;;;;;;;;;;5071161;28;20440;-76
2022/11/16 01:49:44;;;;;;;10.10;9.30;;;;;;;;;;5056237;28;20445;-77
2022/11/16 01:52:13;;;;;;;12.30;8.90;;;;;;;;;;5051463;28;20461;-76
2022/11/16 01:54:43;;;;;;;10.40;9.10;;;;;;;;;;5050752;28;20473;-77
2022/11/16 01:57:13;;;;;;;10.40;9.47;;;;;;;;;;5051564;28;20442;-78
2022/11/16 01:59:41;;;;;;;9.10;8.40;;;;;;;;;;5052178;28;20441;-77
2022/11/16 02:02:08;;;;;;;9.60;8.60;;;;;;;;;;5052008;28;20485;-78
2022/11/16 02:04:35;;;;;;;9.50;8.60;;;;;;;;;;5052936;28;20477;-77
2022/11/16 02:07:05;;;;;;;9.27;8.40;;;;;;;;;;5053286;28;20937;-77
2022/11/16 02:09:54;;;;;;;10.57;8.90;;;;;;;;;;5053822;28;20937;-77
2022/11/16 02:12:43;;;;;;;8.87;8.07;;;;;;;;;;5056427;28;20433;-77
2022/11/16 02:15:14;;;;;;;10.80;9.83;;;;;;;;;;5054858;28;20437;-78
2022/11/16 02:17:48;;;;;;;9.60;8.60;;;;;;;;;;5051907;28;20450;-78
2022/11/16 02:20:31;;;;;;;9.93;9.17;;;;;;;;;;5056626;28;20456;-78
2022/11/16 02:23:07;;;;;;;10.17;9.13;;;;;;;;;;5055025;28;20564;-76
2022/11/16 02:25:38;;;;;;;10.13;9.23;;;;;;;;;;5055455;28;20824;-77
2022/11/16 02:28:16;;;;;;;9.30;8.50;;;;;;;;;;5050801;28;20901;-76
2022/11/16 02:30:45;;;;;;;10.00;9.00;;;;;;;;;;5050774;28;20445;-77
2022/11/16 02:33:14;;;;;;;9.90;8.60;;;;;;;;;;5050088;28;20465;-77
2022/11/16 02:35:42;;;;;;;10.63;9.63;;;;;;;;;;5051147;28;20449;-76
2022/11/16 02:38:13;;;;;;;9.50;8.17;;;;;;;;;;5051265;28;20931;-77
2022/11/16 02:40:43;;;;;;;10.00;9.10;;;;;;;;;;5051526;28;20429;-77
2022/11/16 02:43:12;;;;;;;9.27;8.40;;;;;;;;;;5051228;28;20570;-79
2022/11/16 02:45:42;;;;;;;9.17;8.37;;;;;;;;;;5051106;28;20456;-77
2022/11/16 02:48:12;;;;;;;9.80;9.00;;;;;;;;;;5051682;28;20446;-76
2022/11/16 02:50:39;;;;;;;9.33;8.50;;;;;;;;;;5051383;28;20445;-76
2022/11/16 02:53:06;;;;;;;12.87;9.13;;;;;;;;;;5050058;28;20549;-77
2022/11/16 02:55:34;;;;;;;10.10;9.20;;;;;;;;;;5050494;28;20450;-79
2022/11/16 02:58:02;;;;;;;9.30;8.50;;;;;;;;;;5052714;28;20979;-77
2022/11/16 03:00:34;;;;;;;9.43;8.70;;;;;;;;;;5056311;28;20454;-77
2022/11/16 03:03:17;;;;;;;9.57;8.67;;;;;;;;;;5056815;28;20500;-75
2022/11/16 03:05:47;;;;;;;10.07;9.13;;;;;;;;;;5058936;28;20496;-76
2022/11/16 03:08:17;;;;;;;10.07;9.17;;;;;;;;;;5053895;28;20800;-77
2022/11/16 03:13:32;;;;;;;9.10;8.20;;;;;;;;;;5050578;28;21111;-78
2022/11/16 03:16:01;;;;;;;8.27;7.57;;;;;;;;;;5051330;28;20434;-78
2022/11/16 03:18:29;;;;;;;8.67;7.87;;;;;;;;;;5051080;28;20538;-76
2022/11/16 03:21:00;;;;;;;9.33;8.53;;;;;;;;;;5053649;28;20450;-76
2022/11/16 03:23:27;;;;;;;9.10;8.20;;;;;;;;;;5057070;28;20469;-76
2022/11/16 03:25:56;;;;;;;9.40;8.57;;;;;;;;;;5057700;28;20453;-76
2022/11/16 03:28:26;;;;;;;9.20;8.30;;;;;;;;;;5056535;28;20765;-76
2022/11/16 03:30:55;;;;;;;10.00;9.00;;;;;;;;;;5051303;28;20442;-78
2022/11/16 03:33:25;;;;;;;9.00;8.20;;;;;;;;;;5049600;28;20461;-77
2022/11/16 03:35:56;;;;;;;9.50;8.63;;;;;;;;;;5052719;28;20429;-77
2022/11/16 03:38:25;;;;;;;9.07;8.17;;;;;;;;;;5057824;28;20791;-77
2022/11/16 03:40:53;;;;;;;8.37;7.50;;;;;;;;;;5066002;28;20456;-78
2022/11/16 03:43:20;;;;;;;8.63;7.83;;;;;;;;;;5052951;28;20575;-77
2022/11/16 03:45:47;;;;;;;9.13;8.33;;;;;;;;;;5068632;28;20440;-76
2022/11/16 03:48:14;;;;;;;8.23;7.53;;;;;;;;;;5074242;28;20441;-77
2022/11/16 03:50:41;;;;;;;8.97;8.27;;;;;;;;;;5073382;28;20440;-77
2022/11/16 03:53:10;;;;;;;7.80;7.10;;;;;;;;;;5073099;28;20461;-77
2022/11/16 03:55:37;;;;;;;8.67;8.00;;;;;;;;;;5073217;28;20444;-78
2022/11/16 03:58:05;;;;;;;8.47;7.77;;;;;;;;;;5073408;28;20440;-78
2022/11/16 04:00:32;;;;;;;9.67;8.20;;;;;;;;;;5073728;28;20476;-76
2022/11/16 04:02:59;;;;;;;7.90;7.20;;;;;;;;;;5072102;28;20480;-77
2022/11/16 04:24:48;;;;;;;7.23;6.63;;;;;;;;;;5072537;28;20456;-76
2022/11/16 04:30:01;;;;;;;6.30;5.43;;;;;;;;;;5073478;28;20408;-77
2022/11/16 04:37:58;;;;;;;5.80;5.30;;;;;;;;;;5072391;28;20420;-78
2022/11/16 04:40:28;;;;;;;4.67;4.37;;;;;;;;;;5071260;28;20802;-78
2022/11/16 04:42:54;;;;;;;5.53;5.10;;;;;;;;;;5072151;28;20492;-77
2022/11/16 04:48:07;;;;;;;5.83;5.33;;;;;;;;;;5072806;28;20440;-76
2022/11/16 04:50:34;;;;;;;5.13;4.73;;;;;;;;;;5060592;28;20457;-77
2022/11/16 04:53:01;;;;;;;6.27;5.70;;;;;;;;;;5053421;28;20462;-79
2022/11/16 04:55:29;;;;;;;5.87;5.27;;;;;;;;;;5053308;28;20445;-78
2022/11/16 04:57:57;;;;;;;5.93;5.43;;;;;;;;;;5053152;28;20460;-78
2022/11/16 05:00:24;;;;;;;5.27;4.87;;;;;;;;;;5053442;28;20445;-79
2022/11/16 05:02:51;;;;;;;5.90;5.40;;;;;;;;;;5052608;28;20477;-78
2022/11/16 05:05:18;;;;;;;5.03;4.63;;;;;;;;;;5053719;28;20442;-76
2022/11/16 05:07:45;;;;;;;5.57;5.20;;;;;;;;;;5054613;28;20761;-79
2022/11/16 05:10:13;;;;;;;5.77;5.27;;;;;;;;;;5053708;28;20457;-78
2022/11/16 05:12:41;;;;;;;5.73;5.00;;;;;;;;;;5051429;28;20449;-78
2022/11/16 05:15:09;;;;;;;5.63;5.23;;;;;;;;;;5052611;28;20441;-78
2022/11/16 05:17:36;;;;;;;6.17;5.67;;;;;;;;;;5053887;28;20449;-76
2022/11/16 05:22:53;;;;;;;6.33;5.73;;;;;;;;;;5054238;28;20544;-77
2022/11/16 05:25:20;;;;;;;5.57;5.17;;;;;;;;;;5056392;28;20429;-77
2022/11/16 05:27:49;;;;;;;5.90;5.40;;;;;;;;;;5056930;28;20441;-77
2022/11/16 05:30:16;;;;;;;6.30;5.70;;;;;;;;;;5053020;28;20449;-78
2022/11/16 05:32:43;;;;;;;5.63;5.10;;;;;;;;;;5051100;28;20438;-76
2022/11/16 05:35:10;;;;;;;6.77;6.27;;;;;;;;;;5052303;28;20455;-79
2022/11/16 05:37:37;;;;;;;7.63;6.90;;;;;;;;;;5051349;28;20823;-77
2022/11/16 05:40:05;;;;;;;7.10;6.50;;;;;;;;;;5051632;28;20472;-77
2022/11/16 05:42:32;;;;;;;6.10;5.03;;;;;;;;;;5050358;28;20870;-77
2022/11/16 05:45:00;;;;;;;6.13;5.10;;;;;;;;;;5052557;28;21044;-76
2022/11/16 05:47:27;;;;;;;5.23;4.83;;;;;;;;;;5051356;28;20453;-76
2022/11/16 05:49:54;;;;;;;5.80;5.30;;;;;;;;;;5051207;28;20447;-76
2022/11/16 05:52:21;;;;;;;4.53;4.10;;;;;;;;;;5051471;28;20453;-78
2022/11/16 05:54:48;;;;;;;5.07;4.57;;;;;;;;;;5049983;28;20473;-78
2022/11/16 05:57:16;;;;;;;4.87;4.43;;;;;;;;;;5050924;28;20453;-78
2022/11/16 05:59:43;;;;;;;6.07;5.53;;;;;;;;;;5050391;28;20441;-76
2022/11/16 06:02:11;;;;;;;4.60;4.20;;;;;;;;;;5050665;28;20844;-76
2022/11/16 06:04:39;;;;;;;4.00;3.70;;;;;;;;;;5050169;28;20472;-77
2022/11/16 06:07:06;;;;;;;4.10;3.90;;;;;;;;;;5052835;28;20460;-77
2022/11/16 06:09:33;;;;;;;3.73;3.53;;;;;;;;;;5066131;28;20944;-77
2022/11/16 06:12:00;;;;;;;4.60;4.30;;;;;;;;;;5073186;28;20437;-77
2022/11/16 06:14:27;;;;;;;4.40;3.83;;;;;;;;;;5072178;28;20472;-77
2022/11/16 06:16:54;;;;;;;4.50;4.03;;;;;;;;;;5071057;28;20444;-77
2022/11/16 06:19:22;;;;;;;4.70;4.30;;;;;;;;;;5072407;28;20456;-76
2022/11/16 06:21:49;;;;;;;3.90;3.60;;;;;;;;;;5059477;28;20457;-76
2022/11/16 06:24:16;;;;;;;5.07;4.60;;;;;;;;;;5069168;28;20491;-75
2022/11/16 06:26:45;;;;;;;8.67;7.90;;;;;;;;;;5070574;28;20452;-77
2022/11/16 06:29:13;;;;;;;4.33;4.03;;;;;;;;;;5070845;28;20451;-77
2022/11/16 06:31:40;;;;;;;5.03;4.63;;;;;;;;;;5072332;28;20448;-76
2022/11/16 06:34:07;;;;;;;4.60;4.20;;;;;;;;;;5077417;28;20560;-77
2022/11/16 06:36:35;;;;;;;4.30;4.00;;;;;;;;;;5072707;28;20444;-75
2022/11/16 06:39:02;;;;;;;4.90;4.50;;;;;;;;;;5070919;28;20456;-76
2022/11/16 06:41:30;;;;;;;4.20;3.90;;;;;;;;;;5072269;28;20448;-75
2022/11/16 06:43:58;;;;;;;3.77;3.47;;;;;;;;;;5072109;28;20488;-75
2022/11/16 06:46:25;;;;;;;3.70;3.40;;;;;;;;;;5072760;28;20460;-77
2022/11/16 06:48:52;;;;;;;4.20;3.80;;;;;;;;;;5078694;28;20518;-76
2022/11/16 06:51:19;;;;;;;3.90;3.60;;;;;;;;;;5075787;28;20775;-77
2022/11/16 06:53:47;;;;;;;4.60;4.20;;;;;;;;;;5071917;28;20461;-76
2022/11/16 06:56:15;;;;;;;4.60;4.20;;;;;;;;;;5073320;28;20448;-75
2022/11/16 06:58:42;;;;;;;4.33;4.03;;;;;;;;;;5072180;28;20448;-77
2022/11/16 07:01:10;;;;;;;4.47;4.17;;;;;;;;;;5071439;28;20966;-77
2022/11/16 07:03:37;;;;;;;4.43;4.03;;;;;;;;;;5070439;28;20560;-77
2022/11/16 07:06:08;;;;;;;4.33;4.00;;;;;;;;;;5071446;28;20456;-76
2022/11/16 07:08:35;;;;;;;7.20;6.20;;;;;;;;;;5070977;28;20452;-76
2022/11/16 07:11:05;;;;;;;9.03;8.43;;;;;;;;;;5074819;28;20432;-77
2022/11/16 07:13:32;;;;;;;7.00;6.60;;;;;;;;;;5073842;28;20463;-76
2022/11/16 07:16:03;;;;;;;4.40;4.00;;;;;;;;;;5074565;28;20444;-76
2022/11/16 07:18:30;;;;;;;3.90;3.60;;;;;;;;;;5074924;28;20451;-76
2022/11/16 07:20:57;;;;;;;2.47;2.10;;;;;;;;;;5074340;28;20531;-76
2022/11/16 07:23:24;;;;;;;3.40;3.20;;;;;;;;;;5073354;28;20492;-78
2022/11/16 07:25:51;;;;;;;2.97;2.83;;;;;;;;;;5058218;28;20445;-76
2022/11/16 07:28:19;;;;;;;4.27;3.97;;;;;;;;;;5067072;28;20445;-77
2022/11/16 07:30:46;;;;;;;4.70;3.40;;;;;;;;;;5073769;28;20436;-77
2022/11/16 07:33:13;;;;;;;3.60;3.30;;;;;;;;;;5073066;28;20456;-77
2022/11/16 07:35:40;;;;;;;4.50;3.63;;;;;;;;;;5073461;28;20462;-76
2022/11/16 07:38:07;;;;;;;5.60;5.20;;;;;;;;;;5073510;28;20449;-77
2022/11/16 07:40:35;;;;;;;4.13;3.83;;;;;;;;;;5074604;28;20444;-77
2022/11/16 07:43:02;;;;;;;2.87;2.67;;;;;;;;;;5077598;28;20544;-77
2022/11/16 07:45:30;;;;;;;2.40;2.30;;;;;;;;;;5077020;28;20440;-79
2022/11/16 07:47:57;;;;;;;2.33;2.23;;;;;;;;;;5074038;28;20452;-76
2022/11/16 07:50:24;;;;;;;1.97;1.87;;;;;;;;;;5076344;28;20448;-76
2022/11/16 07:52:51;;;;;;;1.50;1.43;;;;;;;;;;5075116;28;20530;-77
2022/11/16 07:55:18;;;;;;;1.70;1.60;;;;;;;;;;5074564;28;20449;-77
2022/11/16 07:57:45;;;;;;;2.37;1.43;;;;;;;;;;5077420;28;20449;-76
2022/11/16 08:00:13;;;;;;;1.53;1.43;;;;;;;;;;5074285;28;20451;-77
2022/11/16 08:02:41;;;;;;;1.70;1.60;;;;;;;;;;5073110;28;21007;-77
2022/11/16 08:05:09;;;;;;;1.53;1.43;;;;;;;;;;5074771;28;20455;-77
2022/11/16 08:07:36;;;;;;;1.77;1.43;;;;;;;;;;5076521;28;20449;-77
2022/11/16 08:10:04;;;;;;;3.30;1.60;;;;;;;;;;5077892;28;20543;-77
2022/11/16 08:12:31;;;;;;;5.83;5.23;;;;;;;;;;5074708;28;20448;-76
2022/11/16 08:14:58;;;;;;;8.50;3.23;;;;;;;;;;5074796;28;20464;-77
2022/11/16 08:17:25;;;;;;;3.03;1.70;;;;;;;;;;5075952;28;20445;-77
2022/11/16 08:19:53;;;;;;;1.73;1.63;;;;;;;;;;5074219;28;20444;-78
2022/11/16 08:22:20;;;;;;;1.73;1.50;;;;;;;;;;5078732;28;20920;-77
2022/11/16 08:24:48;;;;;;;2.17;1.93;;;;;;;;;;5073509;28;20477;-76
2022/11/16 08:27:16;;;;;;;2.00;1.90;;;;;;;;;;5073599;28;20445;-77
2022/11/16 08:29:43;;;;;;;3.03;1.80;;;;;;;;;;5074241;28;20464;-77
2022/11/16 08:32:10;;;;;;;1.60;1.50;;;;;;;;;;5074467;28;20445;-77
2022/11/16 08:34:37;;;;;;;2.97;2.30;;;;;;;;;;5073607;28;20457;-77
2022/11/16 08:37:05;;;;;;;2.17;1.73;;;;;;;;;;5074291;28;20452;-78
2022/11/16 08:39:32;;;;;;;3.50;1.90;;;;;;;;;;5073421;28;20622;-78
2022/11/16 08:42:00;;;;;;;1.57;1.43;;;;;;;;;;5073219;28;20449;-76
2022/11/16 08:44:27;;;;;;;3.27;1.70;;;;;;;;;;5072348;28;20485;-76
2022/11/16 08:46:54;;;;;;;5.57;2.00;;;;;;;;;;5073795;28;20441;-77
2022/11/16 08:49:21;;;;;;;1.60;1.50;;;;;;;;;;5077727;28;20467;-77
2022/11/16 08:51:48;;;;;;;1.87;1.20;;;;;;;;;;5080004;28;20452;-77
2022/11/16 08:54:16;;;;;;;1.60;1.20;;;;;;;;;;5075937;28;20457;-77
2022/11/16 08:56:43;;;;;;;3.13;1.17;;;;;;;;;;5077330;28;20467;-77
2022/11/16 08:59:11;;;;;;;1.73;1.63;;;;;;;;;;5080741;28;20452;-77
2022/11/16 09:01:38;;;;;;;2.07;1.40;;;;;;;;;;5076986;28;20445;-78
2022/11/16 09:04:05;;;;;;;4.73;1.53;;;;;;;;;;5073480;28;20507;-77
2022/11/16 09:06:33;;;;;;;2.30;1.27;;;;;;;;;;5076821;28;20449;-77
2022/11/16 09:09:00;;;;;;;4.40;1.80;;;;;;;;;;5073913;28;21008;-76
2022/11/16 09:11:28;;;;;;;3.60;1.93;;;;;;;;;;5075874;28;20452;-77
2022/11/16 09:13:56;;;;;;;1.90;1.80;;;;;;;;;;5074351;28;20449;-78
2022/11/16 09:16:23;;;;;;;3.00;2.10;;;;;;;;;;5075506;28;20520;-77
2022/11/16 09:18:51;;;;;;;1.27;1.17;;;;;;;;;;5073820;28;20453;-77
2022/11/16 09:21:19;;;;;;;1.77;1.50;;;;;;;;;;5072449;28;20444;-77
2022/11/16 09:23:46;;;;;;;3.57;1.10;;;;;;;;;;5072842;28;20481;-78
2022/11/16 09:26:13;;;;;;;1.47;1.30;;;;;;;;;;5072527;28;20444;-76
2022/11/16 09:28:49;;;;;;;2.90;1.27;;;;;;;;;;5075017;28;20440;-77
2022/11/16 09:31:16;;;;;;;2.97;1.23;;;;;;;;;;5074813;28;20463;-77
2022/11/16 09:33:46;;;;;;;2.00;1.40;;;;;;;;;;5080747;28;20476;-78
2022/11/16 09:36:14;;;;;;;3.30;2.07;;;;;;;;;;5073764;28;20548;-78
2022/11/16 09:38:42;;;;;;;3.10;1.40;;;;;;;;;;5071897;28;20445;-77
2022/11/16 09:41:10;;;;;;;1.60;1.50;;;;;;;;;;5071901;28;20448;-78
2022/11/16 09:43:42;;;;;;;2.90;1.63;;;;;;;;;;5071849;28;20481;-78
2022/11/16 09:46:17;;;;;;;5.97;2.30;;;;;;;;;;5072628;28;20455;-78
2022/11/16 09:48:44;;;;;;;1.60;1.47;;;;;;;;;;5072935;28;20854;-76
2022/11/16 09:51:14;;;;;;;2.03;1.40;;;;;;;;;;5074917;28;20444;-76
2022/11/16 09:53:42;;;;;;;2.07;1.60;;;;;;;;;;5073730;28;20468;-77
2022/11/16 09:56:11;;;;;;;4.10;1.40;;;;;;;;;;5072239;28;20449;-76
2022/11/16 09:58:41;;;;;;;4.60;1.90;;;;;;;;;;5072293;28;20437;-77
2022/11/16 10:01:14;;;;;;;4.00;1.70;;;;;;;;;;5071865;28;20480;-77
2022/11/16 10:03:44;;;;;;;3.33;1.50;;;;;;;;;;5071154;28;20555;-78
2022/11/16 10:06:17;;;;;;;1.37;1.07;;;;;;;;;;5071638;28;20900;-77
2022/11/16 10:08:46;;;;;;;1.50;1.40;;;;;;;;;;5071495;28;20421;-77
2022/11/16 10:11:24;;;;;;;1.50;1.40;;;;;;;;;;5070517;28;20445;-78
2022/11/16 10:13:56;;;;;;;1.63;1.50;;;;;;;;;;5057244;28;20528;-76
2022/11/16 10:16:30;;;;;;;1.67;1.57;;;;;;;;;;5051241;28;20422;-78
2022/11/16 10:19:02;;;;;;;1.83;1.20;;;;;;;;;;5051714;28;20894;-77
2022/11/16 10:21:36;;;;;;;3.33;1.43;;;;;;;;;;5051260;28;20426;-78
2022/11/16 10:24:17;;;;;;;2.50;2.37;;;;;;;;;;5051528;28;20525;-78
2022/11/16 10:26:47;;;;;;;5.00;1.30;;;;;;;;;;5051564;28;20429;-78
2022/11/16 10:29:22;;;;;;;2.00;1.33;;;;;;;;;;5051252;28;20774;-77
2022/11/16 10:31:57;;;;;;;1.70;1.50;;;;;;;;;;5050975;28;20430;-78
2022/11/16 10:34:28;;;;;;;2.00;1.33;;;;;;;;;;5049988;28;20465;-77
2022/11/16 10:36:57;;;;;;;1.63;1.30;;;;;;;;;;5050511;28;20471;-77
2022/11/16 10:39:26;;;;;;;4.33;1.97;;;;;;;;;;5050923;28;20449;-77
2022/11/16 10:41:53;;;;;;;1.10;1.10;;;;;;;;;;5051945;28;20465;-76
2022/11/16 10:44:24;;;;;;;1.93;1.30;;;;;;;;;;5049880;28;20564;-76
2022/11/16 10:46:56;;;;;;;1.43;1.13;;;;;;;;;;5050920;28;20448;-77
2022/11/16 10:49:29;;;;;;;1.93;1.47;;;;;;;;;;5050872;28;20445;-77
2022/11/16 10:51:58;;;;;;;3.70;1.50;;;;;;;;;;5050497;28;20425;-77
2022/11/16 10:54:25;;;;;;;1.13;1.03;;;;;;;;;;5050044;28;20465;-75
2022/11/16 10:56:55;;;;;;;1.40;1.30;;;;;;;;;;5050360;28;20521;-76
2022/11/16 10:59:22;;;;;;;1.83;1.07;;;;;;;;;;5050836;28;20450;-77
2022/11/16 11:01:50;;;;;;;1.50;1.23;;;;;;;;;;5050520;28;20442;-76
2022/11/16 11:04:19;;;;;;;1.17;0.90;;;;;;;;;;5050251;28;20568;-76
2022/11/16 11:06:47;;;;;;;1.77;1.03;;;;;;;;;;5052073;28;20442;-76
2022/11/16 11:09:17;;;;;;;2.37;1.30;;;;;;;;;;5055469;28;20456;-77
2022/11/16 11:14:42;;;;;;;1.00;0.83;;;;;;;;;;5056612;28;20932;-77
2022/11/16 11:17:13;;;;;;;1.27;1.27;;;;;;;;;;5052833;28;20441;-77
2022/11/16 11:19:40;;;;;;;1.67;1.03;;;;;;;;;;5061313;28;20480;-76
2022/11/16 11:22:14;;;;;;;2.10;1.23;;;;;;;;;;5060117;28;20452;-77
2022/11/16 11:24:48;;;;;;;3.17;1.80;;;;;;;;;;5055732;28;20546;-75
2022/11/16 11:27:21;;;;;;;1.73;1.00;;;;;;;;;;5050235;28;20451;-78
2022/11/16 11:29:51;;;;;;;1.10;0.90;;;;;;;;;;5050074;28;20437;-75
2022/11/16 11:32:19;;;;;;;1.53;1.43;;;;;;;;;;5050168;28;20448;-76
2022/11/16 11:34:47;;;;;;;1.00;0.90;;;;;;;;;;5049490;28;20469;-76
2022/11/16 11:37:15;;;;;;;0.93;0.93;;;;;;;;;;5050354;28;20445;-76
2022/11/16 11:39:45;;;;;;;1.30;1.20;;;;;;;;;;5051025;28;20813;-76
2022/11/16 11:42:23;;;;;;;1.50;1.07;;;;;;;;;;5051076;28;20441;-77
2022/11/16 11:44:56;;;;;;;1.40;1.10;;;;;;;;;;5049139;28;21070;-76
2022/11/16 11:47:34;;;;;;;2.50;1.10;;;;;;;;;;5049802;28;20445;-76
2022/11/16 11:50:06;;;;;;;1.20;1.10;;;;;;;;;;5050380;28;20430;-76
2022/11/16 11:52:34;;;;;;;2.07;1.10;;;;;;;;;;5049109;28;21100;-76
2022/11/16 11:55:03;;;;;;;3.07;1.47;;;;;;;;;;5050053;28;20473;-77
2022/11/16 11:57:33;;;;;;;1.23;1.13;;;;;;;;;;5053561;28;20829;-76
2022/11/16 12:00:02;;;;;;;1.90;1.10;;;;;;;;;;5053925;28;20893;-76
2022/11/16 12:02:37;;;;;;;1.83;0.97;;;;;;;;;;5053976;28;20433;-76
2022/11/16 12:05:14;;;;;;;1.57;1.00;;;;;;;;;;5053681;28;20480;-77
2022/11/16 12:07:57;;;;;;;1.13;1.00;;;;;;;;;;5053914;28;20418;-76
2022/11/16 12:10:29;;;;;;;1.80;0.80;;;;;;;;;;5053780;28;20436;-75
2022/11/16 12:13:01;;;;;;;1.27;0.97;;;;;;;;;;5052956;28;20540;-77
2022/11/16 12:15:46;;;;;;;2.33;1.03;;;;;;;;;;5053586;28;20418;-76
2022/11/16 12:18:18;;;;;;;1.13;1.00;;;;;;;;;;5053060;28;20837;-77
2022/11/16 12:20:51;;;;;;;1.60;0.90;;;;;;;;;;5054319;28;20806;-77
2022/11/16 12:23:31;;;;;;;1.10;0.90;;;;;;;;;;5054124;28;20465;-77
2022/11/16 12:26:03;;;;;;;1.50;0.83;;;;;;;;;;5055551;28;20452;-77
2022/11/16 12:28:41;;;;;;;1.90;1.10;;;;;;;;;;5055341;28;20432;-77
2022/11/16 12:31:20;;;;;;;2.63;1.10;;;;;;;;;;5054225;28;20456;-76
2022/11/16 12:33:51;;;;;;;1.53;1.00;;;;;;;;;;5053453;28;20457;-76
2022/11/16 12:36:25;;;;;;;1.53;1.00;;;;;;;;;;5054656;28;20448;-77
2022/11/16 12:38:57;;;;;;;2.93;0.97;;;;;;;;;;5059258;28;20437;-77
2022/11/16 12:41:35;;;;;;;1.20;1.00;;;;;;;;;;5058558;28;20429;-77
2022/11/16 12:44:07;;;;;;;0.87;0.87;;;;;;;;;;5055081;28;20964;-76
2022/11/16 12:46:39;;;;;;;2.10;1.17;;;;;;;;;;5056371;28;20504;-77
2022/11/16 12:49:16;;;;;;;1.23;0.93;;;;;;;;;;5055876;28;20449;-76
2022/11/16 12:51:50;;;;;;;1.07;1.07;;;;;;;;;;5055684;28;20448;-76
2022/11/16 12:54:34;;;;;;;2.13;0.90;;;;;;;;;;5054518;28;21000;-79
2022/11/16 12:57:06;;;;;;;1.97;0.77;;;;;;;;;;5053224;28;20438;-76
2022/11/16 12:59:46;;;;;;;0.87;0.87;;;;;;;;;;5052877;28;20445;-77
2022/11/16 13:02:16;;;;;;;2.70;1.03;;;;;;;;;;5053347;28;20417;-77
2022/11/16 13:04:45;;;;;;;0.90;0.80;;;;;;;;;;5052410;28;20481;-76
2022/11/16 13:07:13;;;;;;;5.70;1.07;;;;;;;;;;5052828;28;20433;-77
2022/11/16 13:09:42;;;;;;;1.90;0.80;;;;;;;;;;5054265;28;20464;-75
2022/11/16 13:12:13;;;;;;;1.30;1.00;;;;;;;;;;5054069;28;20442;-77
2022/11/16 13:14:43;;;;;;;2.17;0.90;;;;;;;;;;5053035;28;20548;-76
2022/11/16 13:17:13;;;;;;;1.40;1.00;;;;;;;;;;5053240;28;20426;-77
2022/11/16 13:19:42;;;;;;;0.60;0.60;;;;;;;;;;5053640;28;20461;-76
2022/11/16 13:22:12;;;;;;;1.63;1.10;;;;;;;;;;5054162;28;20453;-76
2022/11/16 13:24:44;;;;;;;3.30;1.30;;;;;;;;;;5052290;28;20485;-77
2022/11/16 13:27:15;;;;;;;3.30;0.90;;;;;;;;;;5053210;28;20548;-77
2022/11/16 13:29:49;;;;;;;1.53;0.80;;;;;;;;;;5053528;28;20448;-76
2022/11/16 13:32:19;;;;;;;0.80;0.70;;;;;;;;;;5053357;28;20430;-77
2022/11/16 13:34:46;;;;;;;1.00;0.90;;;;;;;;;;5052094;28;20469;-76
2022/11/16 13:37:37;;;;;;;2.43;0.90;;;;;;;;;;5052555;28;21176;-77
2022/11/16 13:40:13;;;;;;;3.17;0.70;;;;;;;;;;5042201;28;20523;-76
2022/11/16 13:42:44;;;;;;;1.10;0.70;;;;;;;;;;5065591;28;20495;-76
2022/11/16 13:45:17;;;;;;;2.30;1.13;;;;;;;;;;5072385;28;20460;-76
2022/11/16 13:47:49;;;;;;;0.60;0.60;;;;;;;;;;5073360;28;20421;-77
2022/11/16 13:50:19;;;;;;;1.60;0.80;;;;;;;;;;5072279;28;20436;-76
2022/11/16 13:52:47;;;;;;;2.60;1.07;;;;;;;;;;5076081;28;20452;-77
2022/11/16 13:55:16;;;;;;;1.43;0.80;;;;;;;;;;5074230;28;20437;-76
2022/11/16 13:57:50;;;;;;;1.43;0.93;;;;;;;;;;5071852;28;20441;-76
2022/11/16 14:00:23;;;;;;;3.17;0.87;;;;;;;;;;5071475;28;20429;-76
2022/11/16 14:03:10;;;;;;;1.87;0.80;;;;;;;;;;5070709;28;20448;-77
2022/11/16 14:05:39;;;;;;;2.53;1.00;;;;;;;;;;5071055;28;20472;-76
2022/11/16 14:08:21;;;;;;;3.57;1.20;;;;;;;;;;5071633;28;20956;-77
2022/11/16 14:11:00;;;;;;;1.93;1.17;;;;;;;;;;5071126;28;20441;-77
2022/11/16 14:13:37;;;;;;;2.83;1.00;;;;;;;;;;5070834;28;20460;-76
2022/11/16 14:16:23;;;;;;;1.20;1.10;;;;;;;;;;5071340;28;20432;-76
2022/11/16 14:18:52;;;;;;;1.93;1.40;;;;;;;;;;5071419;28;20471;-76
2022/11/16 14:21:25;;;;;;;2.20;1.00;;;;;;;;;;5072071;28;20441;-77
2022/11/16 14:24:01;;;;;;;1.00;0.90;;;;;;;;;;5070361;28;20468;-77
2022/11/16 14:26:37;;;;;;;2.53;0.83;;;;;;;;;;5071262;28;20451;-75
2022/11/16 14:29:15;;;;;;;3.17;1.30;;;;;;;;;;5071206;28;20429;-76
2022/11/16 14:31:52;;;;;;;3.60;1.80;;;;;;;;;;5071308;28;20420;-77
2022/11/16 14:34:22;;;;;;;3.27;1.20;;;;;;;;;;5070342;28;20463;-77
2022/11/16 14:36:50;;;;;;;3.60;1.03;;;;;;;;;;5071408;28;20440;-75
2022/11/16 14:39:18;;;;;;;2.43;1.00;;;;;;;;;;5071501;28;20451;-76
2022/11/16 14:41:45;;;;;;;1.77;1.30;;;;;;;;;;5072136;28;20456;-76
2022/11/16 14:44:13;;;;;;;1.30;0.83;;;;;;;;;;5071392;28;20483;-75
2022/11/16 14:46:40;;;;;;;3.40;1.43;;;;;;;;;;5071444;28;20443;-76
2022/11/16 14:49:13;;;;;;;4.23;1.90;;;;;;;;;;5071019;28;20444;-77
2022/11/16 14:51:43;;;;;;;2.23;1.03;;;;;;;;;;5070874;28;20429;-77
2022/11/16 14:54:13;;;;;;;2.00;1.10;;;;;;;;;;5070655;28;20461;-77
2022/11/16 14:56:55;;;;;;;3.10;1.33;;;;;;;;;;5071334;28;20433;-76
2022/11/16 14:59:22;;;;;;;3.07;1.50;;;;;;;;;;5071434;28;20501;-76
2022/11/16 15:01:49;;;;;;;2.93;1.40;;;;;;;;;;5071512;28;20483;-77
2022/11/16 15:04:17;;;;;;;2.80;1.50;;;;;;;;;;5073646;28;20494;-76
2022/11/16 15:06:48;;;;;;;2.30;1.30;;;;;;;;;;5075043;28;20567;-76
2022/11/16 15:09:19;;;;;;;2.63;1.57;;;;;;;;;;5071420;28;20498;-77
2022/11/16 15:14:33;;;;;;;1.63;1.10;;;;;;;;;;5051107;28;20448;-76
2022/11/16 15:17:00;;;;;;;2.30;1.47;;;;;;;;;;5051929;28;20445;-77
2022/11/16 15:19:29;;;;;;;3.27;2.07;;;;;;;;;;5052892;28;20448;-77
2022/11/16 15:21:59;;;;;;;2.00;1.50;;;;;;;;;;5054204;28;20441;-76
2022/11/16 15:24:26;;;;;;;3.73;2.43;;;;;;;;;;5053440;28;20473;-76
2022/11/16 15:26:54;;;;;;;3.50;2.53;;;;;;;;;;5052006;28;20442;-76
2022/11/16 15:29:22;;;;;;;6.17;2.33;;;;;;;;;;5051726;28;20437;-77
2022/11/16 15:31:49;;;;;;;5.33;2.20;;;;;;;;;;5056074;28;20488;-77
2022/11/16 15:34:17;;;;;;;6.43;2.17;;;;;;;;;;5056547;28;20468;-76
2022/11/16 15:36:44;;;;;;;3.50;2.70;;;;;;;;;;5061745;28;20441;-76